• Join FlightAware (Why Join?)
  • Login
  • US Flag 
04:16AM EDT


 

Airport Tracker/Info


-or-


 

Live Flight TrackerFlight Track Log ✈ NKS868 ✈ 30-Jun-2013 ✈ KLAX - KDFW

Flight Track Log - Related Links

Times and Time Zones

All times are in EDT time to prevent confusion due to time zone crossing. See the NKS868 flight status page for this flight to view local times or setup timezone preferences in your user account.

Time Position Orientation Groundspeed Altitude Reporting Facility
EDT Latitude Longitude Course Direction KTS MPH feet Rate Location/Type
10:48PM 33.9319 -118.4706 224° Southwest 200 230 1,700  Level Los Angeles Center
10:49PM 33.8808 -118.5300 224° Southwest 254 292 3,800 1,740 Climbing Los Angeles Center
10:50PM 33.8122 -118.5756 209° Southwest 279 321 5,300 1,800 Climbing Los Angeles Center
10:51PM 33.7367 -118.5586 169° South 279 321 7,500 2,040 Climbing Los Angeles Center
10:52PM 33.6686 -118.5139 151° Southeast 282 325 9,600 1,500 Climbing Los Angeles Center
10:53PM 33.6369 -118.4289 114° Southeast 314 361 10,700 1,800 Climbing Los Angeles Center
10:54PM 33.6475 -118.2972 84° East 337 388 13,400 2,160 Climbing Los Angeles Center
10:55PM 33.6492 -118.1758 89° East 370 426 15,200 1,980 Climbing Los Angeles Center
10:56PM 33.6514 -118.0514 89° East 376 433 17,600 2,100 Climbing Los Angeles Center
10:57PM 33.6533 -117.9219 89° East 388 447 19,600 1,800 Climbing Los Angeles Center
10:58PM 33.6547 -117.7878 89° East 400 460 21,400 1,740 Climbing Los Angeles Center
10:59PM 33.6564 -117.6219 89° East 412 474 23,300 1,560 Climbing Los Angeles Center
11:00PM 33.6575 -117.4786 89° East 423 487 24,700 1,380 Climbing Los Angeles Center
11:02PM 33.6525 -117.3331 92° East 434 499 26,200 1,620 Climbing Los Angeles Center
11:03PM 33.6444 -117.1881 94° East 438 504 28,100 1,800 Climbing Los Angeles Center
11:04PM 33.6258 -117.0478 99° East 429 494 29,900 1,380 Climbing Los Angeles Center
11:05PM 33.6019 -116.9125 102° East 419 482 31,000 480 Climbing Los Angeles Center
11:06PM 33.5864 -116.7700 97° East 423 487 30,900 -60 Descending Los Angeles Center
11:07PM 33.5719 -116.6306 97° East 424 488 30,900  Level Los Angeles Center
11:08PM 33.5533 -116.4614 97° East 425 489 30,900  Level Los Angeles Center
11:09PM 33.5369 -116.3194 98° East 427 491 30,900  Level Los Angeles Center
11:10PM 33.5200 -116.1778 98° East 427 491 30,900  Level Los Angeles Center
11:11PM 33.5028 -116.0353 98° East 429 494 30,900  Level Los Angeles Center
11:12PM 33.4847 -115.8939 99° East 429 494 30,900  Level Los Angeles Center
11:13PM 33.4678 -115.7522 98° East 429 494 30,900  Level Los Angeles Center
11:14PM 33.4503 -115.6119 98° East 428 493 30,900  Level Los Angeles Center
11:15PM 33.4344 -115.4725 98° East 424 488 30,900  Level Los Angeles Center
11:16PM 33.4133 -115.3044 99° East 425 489 30,900  Level Los Angeles Center
11:17PM 33.3919 -115.1369 99° East 424 488 30,900  Level Los Angeles Center
11:18PM 33.3756 -114.9978 98° East 424 488 30,900  Level Los Angeles Center
11:19PM 33.3572 -114.8569 99° East 429 494 30,900  Level Los Angeles Center
11:20PM 33.3397 -114.7183 99° East 425 489 30,900  Level Los Angeles Center
11:21PM 33.3233 -114.5800 98° East 423 487 30,900  Level Los Angeles Center
11:22PM 33.3069 -114.4411 98° East 423 487 30,900  Level Los Angeles Center
11:23PM 33.2950 -114.3392 98° East 423 487 30,900  Level Albuquerque Center
11:24PM 33.2783 -114.2006 98° East 423 487 30,900  Level Albuquerque Center
11:25PM 33.2603 -114.0617 99° East 423 487 30,900  Level Albuquerque Center
11:26PM 33.2431 -113.9225 98° East 424 488 30,900  Level Albuquerque Center
11:27PM 33.2244 -113.7831 99° East 425 489 30,900  Level Albuquerque Center
11:28PM 33.2061 -113.6450 99° East 424 488 30,900  Level Albuquerque Center
11:29PM 33.1889 -113.5042 98° East 427 491 30,900  Level Albuquerque Center
11:30PM 33.1697 -113.3653 99° East 426 490 30,900  Level Albuquerque Center
11:31PM 33.1436 -113.2275 103° East 425 489 30,900  Level Albuquerque Center
11:32PM 33.1203 -113.0897 101° East 424 488 30,900  Level Albuquerque Center
11:33PM 33.0961 -112.9258 100° East 419 482 30,900  Level Albuquerque Center
11:34PM 33.0769 -112.7908 100° East 415 478 30,900  Level Albuquerque Center
11:35PM 33.0567 -112.6550 100° East 414 476 30,900  Level Albuquerque Center
11:36PM 33.0361 -112.5194 100° East 415 478 30,900  Level Albuquerque Center
11:37PM 33.0133 -112.3814 101° East 422 486 30,900  Level Albuquerque Center
11:38PM 32.9969 -112.2567 99° East 422 486 31,000  Climbing Albuquerque Center
11:39PM 32.9781 -112.1194 99° East 422 486 31,000  Level Albuquerque Center
11:40PM 32.9547 -111.9536 99° East 426 490 31,000 -60 Level Albuquerque Center
11:41PM 32.9325 -111.8164 101° East 426 490 30,900  Descending Albuquerque Center
11:42PM 32.9122 -111.6792 100° East 423 487 31,000  Climbing Albuquerque Center
11:43PM 32.8892 -111.5425 101° East 424 488 31,000  Level Albuquerque Center
11:44PM 32.8669 -111.4069 101° East 421 484 31,000  Level Albuquerque Center
11:45PM 32.8447 -111.2700 101° East 423 487 31,000  Level Albuquerque Center
11:46PM 32.8211 -111.1294 101° East 431 496 31,000  Level Albuquerque Center
11:47PM 32.7994 -110.9864 100° East 440 506 31,000  Level Albuquerque Center
11:48PM 32.7711 -110.8172 101° East 438 504 31,000 -60 Level Albuquerque Center
11:49PM 32.7500 -110.6747 100° East 439 505 30,900  Descending Albuquerque Center
11:50PM 32.7286 -110.5342 100° East 436 502 31,000  Climbing Albuquerque Center
11:51PM 32.7061 -110.3953 101° East 433 498 31,000  Level Albuquerque Center
11:52PM 32.6831 -110.2558 101° East 434 499 31,000  Level Albuquerque Center
11:53PM 32.6597 -110.1169 101° East 435 501 31,000  Level Albuquerque Center
11:55PM 32.6492 -109.9753 95° East 435 501 31,000 -60 Level Albuquerque Center
11:56PM 32.6367 -109.8336 96° East 436 502 30,900  Descending Albuquerque Center
11:57PM 32.6200 -109.6672 97° East 432 497 31,000  Climbing Albuquerque Center
11:58PM 32.6061 -109.5281 97° East 431 496 31,000  Level Albuquerque Center
11:59PM 32.5928 -109.3881 96° East 431 496 31,000  Level Albuquerque Center
12:00AM 32.5803 -109.2472 96° East 435 501 31,000  Level Albuquerque Center
12:01AM 32.5686 -109.1058 96° East 437 503 31,000  Level Albuquerque Center
12:02AM 32.5539 -108.9656 97° East 437 503 31,000 -60 Level Albuquerque Center
12:03AM 32.5389 -108.8239 97° East 439 505 30,900  Descending Albuquerque Center
12:04AM 32.5228 -108.6556 96° East 437 503 31,000  Climbing Albuquerque Center
12:05AM 32.5086 -108.5164 97° East 432 497 31,000  Level Albuquerque Center
12:06AM 32.4950 -108.3767 97° East 432 497 31,000  Level Albuquerque Center
12:07AM 32.4794 -108.2372 97° East 433 498 31,000  Level Albuquerque Center
12:08AM 32.4658 -108.0986 97° East 431 496 31,000  Level Albuquerque Center
12:09AM 32.4525 -107.9592 96° East 430 495 31,000 -60 Level Albuquerque Center
12:10AM 32.4369 -107.8178 97° East 432 497 30,900 -60 Descending Albuquerque Center
12:11AM 32.4222 -107.6750 97° East 437 503 30,900  Level Albuquerque Center
12:12AM 32.4033 -107.5056 97° East 436 502 30,900  Level Albuquerque Center
12:13AM 32.3886 -107.3650 97° East 441 507 31,000  Climbing Albuquerque Center
12:14AM 32.3739 -107.2217 97° East 444 511 31,000  Level Albuquerque Center
12:15AM 32.3581 -107.0672 97° East 447 514 31,000  Level Albuquerque Center
12:16AM 32.3403 -106.9228 98° East 445 512 31,000 -60 Level Albuquerque Center
12:17AM 32.3244 -106.7922 98° East 446 513 30,900 -60 Descending Albuquerque Center
12:18AM 32.3075 -106.6472 98° East 448 516 30,900  Level Albuquerque Center
12:19AM 32.2942 -106.5025 96° East 445 512 30,900  Level Albuquerque Center
12:20AM 32.2753 -106.3306 97° East 443 510 30,900  Level Albuquerque Center
12:21AM 32.2600 -106.1939 97° East 441 507 30,900  Level Albuquerque Center
12:22AM 32.2431 -106.0511 98° East 441 507 30,900  Level Albuquerque Center
12:23AM 32.2478 -105.9069 88° East 438 504 30,900  Level Albuquerque Center
12:24AM 32.2511 -105.7625 88° East 440 506 31,000  Climbing Albuquerque Center
12:25AM 32.2544 -105.6175 88° East 442 509 30,900 -60 Descending Albuquerque Center
12:26AM 32.2581 -105.4700 88° East 446 513 30,900  Level Albuquerque Center
12:27AM 32.2594 -105.3239 89° East 447 514 30,900  Level Albuquerque Center
12:28AM 32.2597 -105.1806 90° East 439 505 30,900  Level Albuquerque Center
12:29AM 32.2617 -105.0344 89° East 442 509 30,900  Level Albuquerque Center
12:30AM 32.2622 -104.8878 90° East 445 512 30,900  Level Albuquerque Center
12:31AM 32.2639 -104.7417 89° East 445 512 30,900  Level Albuquerque Center
12:32AM 32.2647 -104.5928 90° East 449 517 30,900  Level Albuquerque Center
12:33AM 32.2658 -104.4467 89° East 448 516 30,900  Level Albuquerque Center
12:34AM 32.2692 -104.2706 89° East 447 514 30,900  Level Albuquerque Center
12:35AM 32.2703 -104.1214 89° East 452 520 30,900  Level Albuquerque Center
12:36AM 32.2703 -103.9964 90° East 453 521 31,000  Climbing Albuquerque Center
12:37AM 32.2725 -103.8172 89° East 455 524 31,000  Level Albuquerque Center
12:38AM 32.2817 -103.6711 86° East 451 519 31,000  Level Albuquerque Center
12:39AM 32.3036 -103.5242 80° East 453 521 31,000  Level Albuquerque Center
12:40AM 32.3214 -103.3789 82° East 451 519 31,000  Level Albuquerque Center
12:41AM 32.3397 -103.2322 82° East 450 518 31,000  Level Albuquerque Center
12:42AM 32.3575 -103.0869 82° East 448 516 31,000  Level Albuquerque Center
12:43AM 32.3753 -102.9406 82° East 451 519 31,000  Level Albuquerque Center
12:44AM 32.3858 -102.8497 82° East 444 511 31,000  Level Fort Worth Center
12:45AM 32.4025 -102.7033 82° East 444 511 31,000  Level Fort Worth Center
12:46AM 32.4189 -102.5589 82° East 444 511 31,000 -60 Level Fort Worth Center
12:47AM 32.4400 -102.3953 81° East 444 511 30,900 -60 Descending Fort Worth Center
12:48AM 32.4583 -102.2511 81° East 444 511 30,900  Level Fort Worth Center
12:49AM 32.4703 -102.1017 85° East 450 518 31,000  Climbing Fort Worth Center
12:50AM 32.4881 -101.9572 82° East 450 518 31,000  Level Fort Worth Center
12:51AM 32.5036 -101.8153 83° East 440 506 31,000  Level Fort Worth Center
12:52AM 32.5169 -101.6706 84° East 440 506 31,000  Level Fort Worth Center
12:53AM 32.5342 -101.5258 82° East 440 506 31,000  Level Fort Worth Center
12:54AM 32.5428 -101.3858 86° East 440 506 31,000  Level Fort Worth Center
12:55AM 32.5511 -101.2581 86° East 440 506 31,000  Level Fort Worth Center
12:56AM 32.5658 -101.1158 83° East 440 506 31,000  Level Fort Worth Center
12:57AM 32.5783 -100.9733 84° East 435 501 31,000  Level Fort Worth Center
12:58AM 32.5925 -100.8308 83° East 435 501 31,000  Level Fort Worth Center
12:59AM 32.6069 -100.6858 83° East 440 506 31,000  Level Fort Worth Center
01:00AM 32.6211 -100.5433 83° East 440 506 31,000  Level Fort Worth Center
01:01AM 32.6350 -100.4008 83° East 440 506 31,000  Level Fort Worth Center
01:02AM 32.6467 -100.2556 85° East 440 506 31,000  Level Fort Worth Center
01:03AM 32.6581 -100.1103 85° East 440 506 31,000  Level Fort Worth Center
01:04AM 32.6697 -99.9528 85° East 440 506 31,000  Level Fort Worth Center
01:05AM 32.6875 -99.7978 82° East 451 519 31,000  Level Fort Worth Center
01:06AM 32.6986 -99.6450 85° East 456 525 31,000  Level Fort Worth Center
01:07AM 32.7117 -99.4997 84° East 456 525 31,000  Level Fort Worth Center
01:08AM 32.7222 -99.3494 85° East 456 525 31,000  Level Fort Worth Center
01:09AM 32.7350 -99.2014 84° East 450 518 31,000  Level Fort Worth Center
01:10AM 32.7453 -99.0558 85° East 450 518 31,000 -420 Level Fort Worth Center
01:11AM 32.7578 -98.9031 84° East 450 518 30,200 -1,560 Descending Fort Worth Center
01:12AM 32.7697 -98.7575 84° East 450 518 27,900 -2,400 Descending Fort Worth Center
01:13AM 32.7817 -98.6144 84° East 445 512 25,500 -2,220 Descending Fort Worth Center
01:14AM 32.7933 -98.4736 84° East 434 499 23,500 -1,800 Descending Fort Worth Center
01:15AM 32.8006 -98.3550 86° East 410 472 21,900 -1,860 Descending Fort Worth Center
01:16AM 32.8119 -98.2167 84° East 386 444 19,800 -2,040 Descending Fort Worth Center
01:17AM 32.8211 -98.1056 84° East 380 437 17,900 -1,980 Descending Fort Worth Center
01:18AM 32.8322 -97.9747 84° East 362 417 15,900 -1,920 Descending Fort Worth Center
01:19AM 32.8242 -97.8708 95° East 357 411 14,100 -1,860 Descending Fort Worth Center
01:20AM 32.8142 -97.7472 95° East 346 398 12,200 -1,800 Descending Fort Worth Center
01:21AM 32.8061 -97.6483 96° East 341 392 10,500 -1,440 Descending Fort Worth Center
01:22AM 32.7811 -97.5394 105° East 314 361 9,400 -1,380 Descending Fort Worth Center
01:23AM 32.7561 -97.4578 110° East 293 337 7,800 -1,620 Descending Fort Worth Center
01:24AM 32.7228 -97.3592 112° Southeast 293 337 6,200 -1,440 Descending Fort Worth Center
01:25AM 32.7039 -97.2825 106° East 280 322 5,000 -1,080 Descending Fort Worth Center
01:26AM 32.7017 -97.1986 92° East 249 287 4,100 -840 Descending Fort Worth Center
01:27AM 32.7058 -97.1419 85° East 207 238 3,400 -720 Descending Fort Worth Center
01:27AM 32.7167 -97.1000 73° East 160 184 3,000 -720 Descending Dallas / Fort Worth TRACON
01:28AM 32.7500 -97.0667 40° Northeast 159 183 2,300 -420 Descending Dallas / Fort Worth TRACON
01:29AM 32.7833 -97.0333 40° Northeast 145 167 2,200 -360 Descending Dallas / Fort Worth TRACON
01:30AM 32.8167 -97.0333 360° North 139 160 1,700 -600 Descending Dallas / Fort Worth TRACON
01:31AM 32.8500 -97.0333 360° North 140 161 1,100 -600 Descending Dallas / Fort Worth TRACON
01:33AM 32.8833 -97.0333 19° North  Level FlightAware Approximate
01:40AM 32.8968 -97.0380 19° North  Level Estimated